Time;durP1;ratioP1;P1;durP2;ratioP2;P2;SDS_P1;SDS_P2;PMS_P1;PMS_P2;Temp;Humidity;BMP_temperature;BMP_pressure;BME280_temperature;BME280_humidity;BME280_pressure;Samples;Min_cycle;Max_cycle;Signal;HPM_P1;HPM_P2
2023/06/22 00:02:19;;;;;;;11.10;7.93;;;;;;;;;;5139151;27;21691;-69
2023/06/22 00:04:45;;;;;;;8.73;7.32;;;;;;;;;;5142970;27;20047;-69
2023/06/22 00:07:12;;;;;;;8.13;6.78;;;;;;;;;;5102608;27;20039;-69
2023/06/22 00:09:38;;;;;;;14.75;7.20;;;;;;;;;;5139275;27;20043;-69
2023/06/22 00:12:04;;;;;;;6.53;5.53;;;;;;;;;;5120530;27;20047;-69
2023/06/22 00:14:30;;;;;;;7.55;6.47;;;;;;;;;;5120954;27;20125;-69
2023/06/22 00:16:58;;;;;;;7.80;6.35;;;;;;;;;;5139409;27;20046;-69
2023/06/22 00:19:28;;;;;;;8.80;6.55;;;;;;;;;;5135491;27;20046;-69
2023/06/22 00:21:54;;;;;;;12.07;8.35;;;;;;;;;;5119969;27;20042;-69
2023/06/22 00:24:20;;;;;;;14.45;8.32;;;;;;;;;;5112162;27;20059;-69
2023/06/22 00:26:48;;;;;;;12.80;9.10;;;;;;;;;;5138619;27;20045;-69
2023/06/22 00:29:14;;;;;;;9.88;7.35;;;;;;;;;;5152324;27;20426;-69
2023/06/22 00:31:41;;;;;;;11.65;8.70;;;;;;;;;;5149235;27;20118;-69
2023/06/22 00:34:08;;;;;;;12.07;9.00;;;;;;;;;;5138637;27;20103;-69
2023/06/22 00:36:34;;;;;;;11.52;9.40;;;;;;;;;;5120739;27;20113;-69
2023/06/22 00:39:01;;;;;;;13.18;9.43;;;;;;;;;;5140452;27;20053;-69
2023/06/22 00:41:30;;;;;;;11.07;8.40;;;;;;;;;;5141810;27;20493;-69
2023/06/22 00:43:56;;;;;;;12.88;9.88;;;;;;;;;;5101240;27;20549;-69
2023/06/22 00:46:23;;;;;;;14.95;11.70;;;;;;;;;;5141579;27;20042;-69
2023/06/22 00:48:50;;;;;;;11.27;9.23;;;;;;;;;;5138469;27;20145;-69
2023/06/22 00:51:17;;;;;;;13.93;9.52;;;;;;;;;;5119553;27;20126;-69
2023/06/22 00:53:43;;;;;;;12.30;9.93;;;;;;;;;;5150360;27;20035;-69
2023/06/22 00:56:12;;;;;;;12.70;8.30;;;;;;;;;;5151886;27;20046;-69
2023/06/22 00:58:41;;;;;;;9.05;7.65;;;;;;;;;;5150913;27;20037;-69
2023/06/22 01:01:07;;;;;;;13.63;8.40;;;;;;;;;;5105363;28;20050;-69
2023/06/22 01:03:34;;;;;;;10.05;8.35;;;;;;;;;;5144468;27;20371;-69
2023/06/22 01:06:09;;;;;;;8.48;6.07;;;;;;;;;;5130699;27;20145;-69
2023/06/22 01:08:37;;;;;;;6.93;5.43;;;;;;;;;;5150347;27;20043;-69
2023/06/22 01:11:11;;;;;;;7.40;5.95;;;;;;;;;;5127620;27;20047;-69
2023/06/22 01:13:40;;;;;;;7.97;6.82;;;;;;;;;;5123474;27;20047;-69
2023/06/22 01:16:24;;;;;;;10.30;8.38;;;;;;;;;;5148413;27;20517;-69
2023/06/22 01:18:52;;;;;;;9.93;8.55;;;;;;;;;;5109407;27;20030;-69
2023/06/22 01:21:20;;;;;;;10.68;8.50;;;;;;;;;;5143436;27;20373;-69
2023/06/22 01:23:46;;;;;;;14.15;10.20;;;;;;;;;;5128423;27;20070;-69
2023/06/22 01:26:18;;;;;;;16.88;11.27;;;;;;;;;;5120019;27;20047;-66
2023/06/22 01:28:44;;;;;;;15.05;13.13;;;;;;;;;;5145992;27;20470;-67
2023/06/22 01:31:12;;;;;;;15.55;10.77;;;;;;;;;;5139171;27;20047;-67
2023/06/22 01:33:40;;;;;;;15.18;10.88;;;;;;;;;;5142767;27;20058;-67
2023/06/22 01:36:07;;;;;;;13.80;10.05;;;;;;;;;;5147896;27;20046;-67
2023/06/22 01:38:35;;;;;;;10.95;8.57;;;;;;;;;;5127738;27;20082;-67
2023/06/22 01:41:02;;;;;;;11.48;8.77;;;;;;;;;;5147916;27;20039;-67
2023/06/22 01:43:29;;;;;;;12.65;8.88;;;;;;;;;;5120178;27;20047;-67
2023/06/22 01:45:56;;;;;;;9.85;7.80;;;;;;;;;;5133312;27;20047;-67
2023/06/22 01:48:23;;;;;;;8.90;7.43;;;;;;;;;;5131944;27;20129;-67
2023/06/22 01:50:49;;;;;;;9.10;7.57;;;;;;;;;;5148613;27;20054;-67
2023/06/22 01:53:16;;;;;;;13.43;8.95;;;;;;;;;;5126084;27;20065;-67
2023/06/22 01:55:42;;;;;;;9.35;7.35;;;;;;;;;;5140213;27;20100;-67
2023/06/22 01:58:08;;;;;;;10.90;8.35;;;;;;;;;;5125090;27;20057;-67
2023/06/22 02:00:37;;;;;;;12.27;8.35;;;;;;;;;;5120233;27;20058;-67
2023/06/22 02:03:08;;;;;;;10.45;8.75;;;;;;;;;;5143901;27;20042;-67
2023/06/22 02:05:37;;;;;;;10.07;7.75;;;;;;;;;;5142549;27;20114;-67
2023/06/22 02:08:06;;;;;;;9.82;7.25;;;;;;;;;;5122595;27;20071;-67
2023/06/22 02:10:33;;;;;;;8.50;6.80;;;;;;;;;;5140438;27;20485;-67
2023/06/22 02:12:59;;;;;;;9.13;7.25;;;;;;;;;;5137438;27;21077;-67
2023/06/22 02:15:26;;;;;;;8.32;7.25;;;;;;;;;;5143070;27;20486;-67
2023/06/22 02:17:52;;;;;;;16.55;8.13;;;;;;;;;;5123140;27;20043;-67
2023/06/22 02:20:18;;;;;;;9.43;7.75;;;;;;;;;;5125184;27;20075;-67
2023/06/22 02:22:45;;;;;;;13.25;7.18;;;;;;;;;;5106744;27;20091;-67
2023/06/22 02:25:11;;;;;;;15.05;8.70;;;;;;;;;;5123833;27;20127;-67
2023/06/22 02:27:40;;;;;;;16.45;9.95;;;;;;;;;;5148163;27;20513;-67
2023/06/22 02:30:10;;;;;;;11.27;9.20;;;;;;;;;;5139814;27;20047;-67
2023/06/22 02:32:36;;;;;;;11.52;8.70;;;;;;;;;;5144131;27;20046;-67
2023/06/22 02:35:06;;;;;;;13.20;9.05;;;;;;;;;;5140980;27;20034;-67
2023/06/22 02:37:32;;;;;;;18.08;8.52;;;;;;;;;;5141572;27;20087;-67
2023/06/22 02:39:59;;;;;;;17.40;8.13;;;;;;;;;;5142316;27;20446;-67
2023/06/22 02:42:25;;;;;;;9.10;8.20;;;;;;;;;;5146772;27;20051;-67
2023/06/22 02:44:51;;;;;;;9.68;8.65;;;;;;;;;;5141548;27;20398;-67
2023/06/22 02:47:17;;;;;;;10.38;9.38;;;;;;;;;;5121633;27;20044;-67
2023/06/22 02:49:45;;;;;;;10.30;8.93;;;;;;;;;;5121967;27;20461;-67
2023/06/22 02:52:11;;;;;;;11.50;8.85;;;;;;;;;;5122514;27;20157;-67
2023/06/22 02:54:38;;;;;;;15.88;9.20;;;;;;;;;;5135075;27;20501;-67
2023/06/22 02:57:04;;;;;;;14.00;9.60;;;;;;;;;;5134958;27;20053;-67
2023/06/22 02:59:30;;;;;;;13.80;9.82;;;;;;;;;;5139707;27;20334;-66
2023/06/22 03:01:57;;;;;;;18.17;10.63;;;;;;;;;;5130640;27;20043;-67
2023/06/22 03:04:23;;;;;;;30.13;10.05;;;;;;;;;;5129559;27;20047;-67
2023/06/22 03:06:50;;;;;;;25.02;10.98;;;;;;;;;;5121300;27;20034;-67
2023/06/22 03:09:17;;;;;;;26.15;11.27;;;;;;;;;;5142386;27;20066;-67
2023/06/22 03:11:43;;;;;;;27.80;10.38;;;;;;;;;;5120227;27;20035;-67
2023/06/22 03:14:09;;;;;;;36.95;11.73;;;;;;;;;;5129087;27;20131;-67
2023/06/22 03:16:36;;;;;;;23.55;12.02;;;;;;;;;;5125300;27;20065;-67
2023/06/22 03:19:02;;;;;;;20.98;12.13;;;;;;;;;;5143778;27;20505;-67
2023/06/22 03:21:29;;;;;;;28.10;11.73;;;;;;;;;;5136919;27;20034;-67
2023/06/22 03:23:56;;;;;;;21.50;11.27;;;;;;;;;;5130255;27;20057;-67
2023/06/22 03:26:23;;;;;;;22.77;11.25;;;;;;;;;;5130834;27;20045;-67
2023/06/22 03:28:49;;;;;;;24.17;11.30;;;;;;;;;;5123908;27;20043;-67
2023/06/22 03:31:16;;;;;;;23.40;10.50;;;;;;;;;;5118922;27;20053;-67
2023/06/22 03:33:42;;;;;;;17.45;9.93;;;;;;;;;;5117501;27;20530;-67
2023/06/22 03:36:08;;;;;;;13.73;9.77;;;;;;;;;;5113820;27;20412;-67
2023/06/22 03:38:34;;;;;;;11.40;9.88;;;;;;;;;;5118522;27;20043;-67
2023/06/22 03:41:01;;;;;;;12.98;10.82;;;;;;;;;;5095107;27;20047;-67
2023/06/22 03:43:27;;;;;;;15.18;10.32;;;;;;;;;;5122074;27;20031;-67
2023/06/22 03:45:53;;;;;;;24.05;12.00;;;;;;;;;;5124240;27;20053;-67
2023/06/22 03:48:19;;;;;;;21.63;12.40;;;;;;;;;;5117610;27;20081;-67
2023/06/22 03:50:45;;;;;;;24.20;13.50;;;;;;;;;;5117701;27;20036;-67
2023/06/22 03:53:13;;;;;;;24.05;13.07;;;;;;;;;;5117532;27;20038;-67
2023/06/22 03:55:41;;;;;;;25.25;12.32;;;;;;;;;;5116524;27;20055;-67
2023/06/22 03:58:09;;;;;;;17.95;12.90;;;;;;;;;;5122537;27;20140;-67
2023/06/22 04:00:35;;;;;;;28.95;13.77;;;;;;;;;;5119743;27;20046;-67
2023/06/22 04:03:01;;;;;;;28.95;12.57;;;;;;;;;;5120527;27;20039;-67
2023/06/22 04:05:27;;;;;;;32.92;14.88;;;;;;;;;;5119582;27;20390;-67
2023/06/22 04:07:54;;;;;;;16.95;13.93;;;;;;;;;;5117507;27;20039;-67
2023/06/22 04:10:20;;;;;;;17.55;13.63;;;;;;;;;;5119318;27;20090;-67
2023/06/22 04:12:47;;;;;;;21.83;13.90;;;;;;;;;;5117628;27;20142;-67
2023/06/22 04:15:14;;;;;;;15.93;14.23;;;;;;;;;;5122360;27;20079;-67
2023/06/22 04:17:40;;;;;;;17.67;15.63;;;;;;;;;;5118588;27;20506;-67
2023/06/22 04:20:06;;;;;;;20.70;15.68;;;;;;;;;;5111957;27;20101;-67
2023/06/22 04:22:33;;;;;;;16.95;14.57;;;;;;;;;;5112189;28;20049;-66
2023/06/22 04:24:59;;;;;;;17.45;15.23;;;;;;;;;;5117436;27;20514;-67
2023/06/22 04:27:25;;;;;;;17.13;15.43;;;;;;;;;;5125428;27;20051;-67
2023/06/22 04:29:51;;;;;;;16.65;15.05;;;;;;;;;;5113577;27;20495;-66
2023/06/22 04:32:18;;;;;;;18.42;16.52;;;;;;;;;;5118058;27;20119;-66
2023/06/22 04:34:44;;;;;;;18.20;16.40;;;;;;;;;;5114791;27;20047;-66
2023/06/22 04:37:15;;;;;;;17.90;15.80;;;;;;;;;;5121388;27;20100;-67
2023/06/22 04:39:42;;;;;;;20.13;17.90;;;;;;;;;;5136175;27;20039;-67
2023/06/22 04:42:08;;;;;;;20.38;17.75;;;;;;;;;;5142791;27;20061;-66
2023/06/22 04:44:34;;;;;;;19.88;17.75;;;;;;;;;;5134019;27;20038;-68
2023/06/22 04:47:08;;;;;;;21.63;18.42;;;;;;;;;;5125150;27;20043;-66
2023/06/22 04:49:37;;;;;;;21.33;19.13;;;;;;;;;;5128589;27;20054;-74
2023/06/22 04:52:09;;;;;;;22.77;20.40;;;;;;;;;;5135075;27;20042;-66
2023/06/22 04:54:36;;;;;;;21.45;19.30;;;;;;;;;;5131513;27;20050;-66
2023/06/22 04:57:03;;;;;;;23.27;20.90;;;;;;;;;;5131708;27;20424;-67
2023/06/22 04:59:30;;;;;;;23.02;20.63;;;;;;;;;;5141549;27;20114;-67
2023/06/22 05:02:00;;;;;;;24.20;21.60;;;;;;;;;;5134137;27;20030;-67
2023/06/22 05:04:27;;;;;;;22.58;20.25;;;;;;;;;;5134130;27;20047;-68
2023/06/22 05:06:54;;;;;;;25.58;21.58;;;;;;;;;;5141208;27;20043;-68
2023/06/22 05:09:21;;;;;;;27.88;22.85;;;;;;;;;;5152918;27;20474;-68
2023/06/22 05:11:47;;;;;;;26.13;22.83;;;;;;;;;;5133552;27;20051;-68
2023/06/22 05:14:14;;;;;;;27.17;24.23;;;;;;;;;;5153334;27;20277;-68
2023/06/22 05:16:42;;;;;;;26.88;23.98;;;;;;;;;;5150975;27;20091;-68
2023/06/22 05:19:08;;;;;;;27.45;23.60;;;;;;;;;;5135601;27;20462;-68
2023/06/22 05:21:34;;;;;;;27.95;23.80;;;;;;;;;;5153263;27;20466;-67
2023/06/22 05:24:02;;;;;;;35.40;29.75;;;;;;;;;;5134595;27;20035;-67
2023/06/22 05:26:29;;;;;;;44.95;32.22;;;;;;;;;;5134009;27;20077;-67
2023/06/22 05:28:56;;;;;;;40.40;32.30;;;;;;;;;;5144665;27;20055;-68
2023/06/22 05:31:22;;;;;;;42.10;31.67;;;;;;;;;;5106761;27;20501;-68
2023/06/22 05:33:49;;;;;;;50.10;35.08;;;;;;;;;;5127684;27;20083;-68
2023/06/22 05:36:15;;;;;;;49.40;34.35;;;;;;;;;;5125805;27;20078;-68
2023/06/22 05:38:42;;;;;;;48.53;35.88;;;;;;;;;;5144090;27;20039;-70
2023/06/22 05:41:09;;;;;;;47.90;35.88;;;;;;;;;;5127599;27;20514;-70
2023/06/22 05:43:35;;;;;;;49.25;36.20;;;;;;;;;;5131035;27;20043;-70
2023/06/22 05:46:05;;;;;;;47.40;35.40;;;;;;;;;;5142736;27;20039;-70
2023/06/22 05:48:31;;;;;;;44.47;33.45;;;;;;;;;;5118247;27;20122;-70
2023/06/22 05:50:58;;;;;;;44.60;31.92;;;;;;;;;;5136644;27;20047;-70
2023/06/22 05:53:24;;;;;;;45.78;32.50;;;;;;;;;;5142876;27;20404;-70
2023/06/22 05:55:50;;;;;;;39.42;31.40;;;;;;;;;;5136370;27;20053;-70
2023/06/22 05:58:16;;;;;;;42.22;29.52;;;;;;;;;;5121764;27;20390;-70
2023/06/22 06:00:43;;;;;;;39.80;30.10;;;;;;;;;;5112689;27;20530;-70
2023/06/22 06:03:10;;;;;;;42.47;30.83;;;;;;;;;;5110236;27;20043;-70
2023/06/22 06:05:37;;;;;;;37.58;29.55;;;;;;;;;;5119608;27;20058;-70
2023/06/22 06:08:05;;;;;;;37.40;28.40;;;;;;;;;;5151155;27;20088;-70
2023/06/22 06:10:32;;;;;;;33.92;28.50;;;;;;;;;;5147068;27;20043;-70
2023/06/22 06:12:58;;;;;;;34.95;27.45;;;;;;;;;;5121481;27;20039;-70
2023/06/22 06:15:24;;;;;;;37.03;27.85;;;;;;;;;;5119211;27;20466;-70
2023/06/22 06:17:51;;;;;;;37.85;28.23;;;;;;;;;;5145110;27;20043;-70
2023/06/22 06:20:19;;;;;;;36.08;27.25;;;;;;;;;;5130935;27;20050;-70
2023/06/22 06:22:45;;;;;;;35.85;28.23;;;;;;;;;;5138971;27;20081;-70
2023/06/22 06:25:15;;;;;;;31.20;25.55;;;;;;;;;;5127918;27;20507;-70
2023/06/22 06:27:45;;;;;;;34.17;26.17;;;;;;;;;;5142181;27;20043;-70
2023/06/22 06:30:12;;;;;;;32.60;25.33;;;;;;;;;;5121025;27;20487;-70
2023/06/22 06:32:39;;;;;;;34.33;26.52;;;;;;;;;;5139043;27;20047;-69
2023/06/22 06:35:09;;;;;;;31.80;27.08;;;;;;;;;;5143274;27;20046;-70
2023/06/22 06:37:39;;;;;;;32.35;27.25;;;;;;;;;;5148696;27;20035;-70
2023/06/22 06:40:10;;;;;;;33.63;26.70;;;;;;;;;;5117197;27;20043;-70
2023/06/22 06:42:46;;;;;;;30.88;26.00;;;;;;;;;;5115007;27;20047;-69
2023/06/22 06:45:13;;;;;;;36.33;26.75;;;;;;;;;;5137392;27;20047;-70
2023/06/22 06:47:40;;;;;;;31.83;26.60;;;;;;;;;;5156077;27;20039;-70
2023/06/22 06:50:07;;;;;;;32.53;26.13;;;;;;;;;;5134751;27;20058;-70
2023/06/22 06:52:33;;;;;;;34.55;28.05;;;;;;;;;;5129636;27;20046;-70
2023/06/22 06:55:00;;;;;;;32.25;26.05;;;;;;;;;;5136262;27;20041;-70
2023/06/22 06:57:28;;;;;;;36.40;26.10;;;;;;;;;;5115883;27;20057;-70
2023/06/22 06:59:58;;;;;;;32.22;26.92;;;;;;;;;;5132708;27;20086;-70
2023/06/22 07:02:25;;;;;;;35.78;27.48;;;;;;;;;;5115269;27;20054;-69
2023/06/22 07:04:51;;;;;;;37.42;28.05;;;;;;;;;;5142374;27;20114;-69
2023/06/22 07:07:17;;;;;;;29.75;24.33;;;;;;;;;;5135985;27;20054;-69
2023/06/22 07:09:43;;;;;;;31.42;25.15;;;;;;;;;;5124903;27;20054;-69
2023/06/22 07:12:09;;;;;;;33.55;26.23;;;;;;;;;;5119755;27;20440;-69
2023/06/22 07:14:36;;;;;;;38.63;27.38;;;;;;;;;;5135703;27;20103;-70
2023/06/22 07:17:02;;;;;;;30.42;24.67;;;;;;;;;;5153770;27;20106;-70
2023/06/22 07:19:28;;;;;;;28.55;22.05;;;;;;;;;;5154743;27;20034;-70
2023/06/22 07:21:55;;;;;;;30.27;22.45;;;;;;;;;;5131085;27;20505;-70
2023/06/22 07:24:21;;;;;;;29.75;24.20;;;;;;;;;;5152505;27;20096;-70
2023/06/22 07:26:49;;;;;;;27.35;24.02;;;;;;;;;;5151412;27;20052;-70
2023/06/22 07:29:16;;;;;;;27.25;23.77;;;;;;;;;;5135571;27;20038;-70
2023/06/22 07:31:42;;;;;;;24.52;20.90;;;;;;;;;;5154512;27;20047;-70
2023/06/22 07:34:08;;;;;;;24.50;19.48;;;;;;;;;;5154816;27;20043;-70
2023/06/22 07:36:35;;;;;;;26.08;21.08;;;;;;;;;;5155003;27;20043;-70
2023/06/22 07:39:03;;;;;;;27.95;21.70;;;;;;;;;;5135432;27;20054;-70
2023/06/22 07:41:29;;;;;;;24.17;20.73;;;;;;;;;;5121268;27;20035;-70
2023/06/22 07:43:55;;;;;;;27.75;20.63;;;;;;;;;;5144477;27;20103;-70
2023/06/22 07:46:22;;;;;;;28.42;22.52;;;;;;;;;;5135566;27;20035;-70
2023/06/22 07:48:48;;;;;;;27.50;22.33;;;;;;;;;;5136058;27;20462;-70
2023/06/22 07:51:14;;;;;;;26.55;19.45;;;;;;;;;;5156387;27;20050;-70
2023/06/22 07:53:41;;;;;;;19.80;16.35;;;;;;;;;;5129086;27;20042;-70
2023/06/22 07:56:07;;;;;;;21.73;16.45;;;;;;;;;;5149775;27;20401;-70
2023/06/22 07:58:34;;;;;;;20.20;14.57;;;;;;;;;;5153920;27;20073;-70
2023/06/22 08:01:00;;;;;;;19.75;15.60;;;;;;;;;;5134826;27;20387;-70
2023/06/22 08:03:26;;;;;;;19.85;15.93;;;;;;;;;;5135751;27;20493;-70
2023/06/22 08:05:52;;;;;;;20.52;15.57;;;;;;;;;;5136103;27;20051;-70
2023/06/22 08:08:18;;;;;;;20.92;16.65;;;;;;;;;;5153089;27;20031;-70
2023/06/22 08:10:45;;;;;;;20.73;15.68;;;;;;;;;;5136479;27;20050;-70
2023/06/22 08:13:11;;;;;;;19.27;15.27;;;;;;;;;;5117193;27;20091;-70
2023/06/22 08:15:37;;;;;;;17.73;14.30;;;;;;;;;;5153083;27;20041;-70
2023/06/22 08:18:03;;;;;;;23.00;15.40;;;;;;;;;;5154066;27;20470;-70
2023/06/22 08:20:29;;;;;;;17.85;13.52;;;;;;;;;;5133566;27;20542;-70
2023/06/22 08:22:57;;;;;;;16.92;12.95;;;;;;;;;;5153902;27;20061;-70
2023/06/22 08:25:24;;;;;;;15.20;12.27;;;;;;;;;;5147605;27;20043;-70
2023/06/22 08:27:50;;;;;;;16.23;12.85;;;;;;;;;;5132297;27;20050;-70
2023/06/22 08:30:18;;;;;;;17.58;13.27;;;;;;;;;;5114656;27;20469;-70
2023/06/22 08:32:44;;;;;;;17.85;13.60;;;;;;;;;;5135219;27;20158;-70
2023/06/22 08:35:12;;;;;;;16.17;12.85;;;;;;;;;;5153104;27;20387;-70
2023/06/22 08:37:39;;;;;;;18.15;13.27;;;;;;;;;;5153934;27;20064;-70
2023/06/22 08:40:09;;;;;;;15.38;12.38;;;;;;;;;;5134668;27;20505;-70
2023/06/22 08:42:41;;;;;;;17.25;12.25;;;;;;;;;;5106670;27;20534;-70
2023/06/22 08:45:07;;;;;;;18.67;12.63;;;;;;;;;;5152743;27;20037;-71
2023/06/22 08:47:33;;;;;;;15.73;11.02;;;;;;;;;;5153449;27;20049;-70
2023/06/22 08:50:02;;;;;;;14.98;11.05;;;;;;;;;;5154085;27;20038;-70
2023/06/22 08:52:28;;;;;;;15.48;10.15;;;;;;;;;;5152621;27;20050;-70
2023/06/22 08:54:55;;;;;;;14.75;10.95;;;;;;;;;;5143350;27;20042;-70
2023/06/22 08:57:21;;;;;;;15.80;12.18;;;;;;;;;;5134297;27;20054;-70
2023/06/22 08:59:48;;;;;;;17.33;10.50;;;;;;;;;;5156672;27;20043;-70
2023/06/22 09:02:14;;;;;;;11.90;9.07;;;;;;;;;;5123924;27;20077;-71
2023/06/22 09:04:41;;;;;;;12.55;10.07;;;;;;;;;;5127191;27;20066;-71
2023/06/22 09:07:07;;;;;;;15.20;12.25;;;;;;;;;;5152672;27;20035;-71
2023/06/22 09:09:33;;;;;;;17.00;13.20;;;;;;;;;;5113373;28;20530;-71
2023/06/22 09:11:59;;;;;;;21.50;12.93;;;;;;;;;;5148009;27;20070;-70
2023/06/22 09:14:26;;;;;;;14.90;10.95;;;;;;;;;;5145170;27;20553;-70
2023/06/22 09:16:52;;;;;;;15.10;11.13;;;;;;;;;;5134062;27;20616;-71
2023/06/22 09:19:18;;;;;;;17.50;11.13;;;;;;;;;;5153003;27;20039;-71
2023/06/22 09:21:44;;;;;;;12.75;9.88;;;;;;;;;;5134274;27;20049;-67
2023/06/22 09:24:10;;;;;;;17.13;11.70;;;;;;;;;;5133610;27;20474;-70
2023/06/22 09:26:36;;;;;;;14.10;11.07;;;;;;;;;;5135008;27;20082;-71
2023/06/22 09:29:05;;;;;;;13.95;11.10;;;;;;;;;;5149743;27;20073;-70
2023/06/22 09:31:31;;;;;;;14.63;10.80;;;;;;;;;;5130251;27;20158;-70
2023/06/22 09:33:58;;;;;;;14.85;9.82;;;;;;;;;;5149310;27;20538;-70
2023/06/22 09:36:24;;;;;;;14.05;10.70;;;;;;;;;;5134966;27;20129;-71
2023/06/22 09:38:58;;;;;;;13.55;10.27;;;;;;;;;;5133105;27;20050;-70
2023/06/22 09:41:25;;;;;;;12.10;10.23;;;;;;;;;;5141107;27;20061;-71
2023/06/22 09:43:51;;;;;;;14.10;10.00;;;;;;;;;;5125601;27;20095;-71
2023/06/22 09:46:17;;;;;;;15.00;10.10;;;;;;;;;;5151178;27;20052;-71
2023/06/22 09:48:44;;;;;;;14.85;11.25;;;;;;;;;;5134506;27;20046;-71
2023/06/22 09:51:10;;;;;;;13.75;10.02;;;;;;;;;;5148331;27;20046;-70
2023/06/22 09:53:37;;;;;;;14.25;8.63;;;;;;;;;;5133217;27;20125;-71
2023/06/22 09:56:03;;;;;;;11.90;9.15;;;;;;;;;;5152919;27;20064;-71
2023/06/22 09:58:29;;;;;;;12.30;8.15;;;;;;;;;;5153622;27;20030;-71
2023/06/22 10:00:55;;;;;;;12.60;8.50;;;;;;;;;;5143409;27;20490;-71
2023/06/22 10:03:22;;;;;;;9.48;6.03;;;;;;;;;;5149868;27;20066;-71
2023/06/22 10:05:48;;;;;;;12.15;8.68;;;;;;;;;;5152122;27;20065;-71
2023/06/22 10:08:15;;;;;;;11.07;9.10;;;;;;;;;;5129481;27;20402;-71
2023/06/22 10:10:41;;;;;;;10.48;7.60;;;;;;;;;;5152864;27;20436;-71
2023/06/22 10:13:11;;;;;;;9.85;7.22;;;;;;;;;;5133438;27;20156;-71
2023/06/22 10:15:37;;;;;;;11.95;8.90;;;;;;;;;;5127324;27;20042;-71
2023/06/22 10:18:04;;;;;;;9.85;8.23;;;;;;;;;;5151905;27;20059;-71
2023/06/22 10:20:30;;;;;;;12.98;7.82;;;;;;;;;;5122301;27;20469;-71
2023/06/22 10:22:56;;;;;;;9.75;7.65;;;;;;;;;;5157805;27;20118;-71
2023/06/22 10:25:22;;;;;;;11.38;8.80;;;;;;;;;;5118297;27;20043;-71
2023/06/22 10:27:49;;;;;;;11.48;7.68;;;;;;;;;;5133112;27;20096;-71
2023/06/22 10:30:15;;;;;;;11.93;9.23;;;;;;;;;;5121620;27;20039;-71
2023/06/22 10:32:43;;;;;;;11.05;8.35;;;;;;;;;;5130474;27;20398;-71
2023/06/22 10:35:10;;;;;;;8.57;6.20;;;;;;;;;;5125975;27;20110;-71
2023/06/22 10:37:37;;;;;;;9.98;5.22;;;;;;;;;;5133979;27;20039;-71
2023/06/22 10:40:04;;;;;;;7.78;5.57;;;;;;;;;;5124097;27;20042;-71
2023/06/22 10:42:30;;;;;;;11.23;6.97;;;;;;;;;;5117737;27;20075;-71
2023/06/22 10:44:56;;;;;;;9.75;7.07;;;;;;;;;;5130720;27;20344;-71
2023/06/22 10:47:22;;;;;;;12.23;8.18;;;;;;;;;;5135184;27;20099;-71
2023/06/22 10:49:49;;;;;;;10.18;6.90;;;;;;;;;;5130834;27;20490;-71
2023/06/22 10:52:18;;;;;;;14.20;7.45;;;;;;;;;;5126158;27;20467;-71
2023/06/22 10:54:44;;;;;;;10.50;7.35;;;;;;;;;;5122330;27;20048;-71
2023/06/22 10:57:10;;;;;;;10.25;7.55;;;;;;;;;;5133219;27;20043;-71
2023/06/22 10:59:36;;;;;;;13.88;6.88;;;;;;;;;;5125210;27;20039;-71
2023/06/22 11:02:03;;;;;;;10.98;6.38;;;;;;;;;;5127413;27;20134;-71
2023/06/22 11:04:29;;;;;;;8.50;6.38;;;;;;;;;;5122893;27;20066;-71
2023/06/22 11:06:56;;;;;;;10.68;5.82;;;;;;;;;;5133294;27;20095;-71
2023/06/22 11:09:22;;;;;;;9.45;6.68;;;;;;;;;;5121176;27;20050;-71
2023/06/22 11:11:48;;;;;;;7.88;5.00;;;;;;;;;;5129795;27;20043;-71
2023/06/22 11:14:15;;;;;;;9.30;5.55;;;;;;;;;;5122098;27;20446;-71
2023/06/22 11:16:42;;;;;;;8.05;4.85;;;;;;;;;;5132663;27;20070;-71
2023/06/22 11:19:08;;;;;;;9.25;5.18;;;;;;;;;;5121109;27;20031;-71
2023/06/22 11:21:34;;;;;;;7.57;4.35;;;;;;;;;;5130013;27;20440;-71
2023/06/22 11:24:00;;;;;;;6.07;4.05;;;;;;;;;;5133261;27;20100;-71
2023/06/22 11:26:27;;;;;;;7.80;4.38;;;;;;;;;;5129993;27;20039;-71
2023/06/22 11:28:53;;;;;;;7.72;4.90;;;;;;;;;;5140803;27;20111;-71
2023/06/22 11:31:20;;;;;;;6.80;4.10;;;;;;;;;;5146388;27;20130;-71
2023/06/22 11:33:47;;;;;;;6.18;4.38;;;;;;;;;;5116212;27;20107;-71
2023/06/22 11:36:14;;;;;;;6.22;4.03;;;;;;;;;;5115792;27;20114;-71
2023/06/22 11:38:40;;;;;;;7.30;4.07;;;;;;;;;;5140937;27;20085;-71
2023/06/22 11:41:07;;;;;;;7.18;4.53;;;;;;;;;;5141542;27;20049;-71
2023/06/22 11:43:34;;;;;;;6.95;4.03;;;;;;;;;;5124987;27;20478;-71
2023/06/22 11:46:00;;;;;;;7.43;4.25;;;;;;;;;;5146705;27;20034;-71
2023/06/22 11:48:27;;;;;;;7.18;4.20;;;;;;;;;;5133384;27;20046;-71
2023/06/22 11:50:54;;;;;;;7.55;4.05;;;;;;;;;;5135527;27;20512;-71
2023/06/22 11:53:21;;;;;;;5.57;3.67;;;;;;;;;;5136706;27;20050;-70
2023/06/22 11:55:48;;;;;;;7.03;4.28;;;;;;;;;;5164652;27;20402;-71
2023/06/22 11:58:15;;;;;;;7.25;3.45;;;;;;;;;;5154489;27;20085;-71
2023/06/22 12:00:41;;;;;;;5.78;3.50;;;;;;;;;;5135038;27;20062;-71
2023/06/22 12:03:09;;;;;;;5.25;3.05;;;;;;;;;;5154239;27;20091;-71
2023/06/22 12:05:35;;;;;;;7.63;3.60;;;;;;;;;;5139495;27;20039;-71
2023/06/22 12:08:01;;;;;;;6.38;2.50;;;;;;;;;;5135738;27;20478;-71
2023/06/22 12:10:30;;;;;;;7.30;2.28;;;;;;;;;;5153649;27;20393;-70
2023/06/22 12:12:58;;;;;;;4.00;2.47;;;;;;;;;;5150148;27;20051;-71
2023/06/22 12:15:24;;;;;;;6.90;2.17;;;;;;;;;;5155088;27;20043;-71
2023/06/22 12:17:50;;;;;;;3.92;2.22;;;;;;;;;;5135532;27;20051;-71
2023/06/22 12:20:17;;;;;;;3.95;2.20;;;;;;;;;;5152896;27;20035;-71
2023/06/22 12:22:43;;;;;;;5.68;2.70;;;;;;;;;;5130160;27;20497;-71
2023/06/22 12:25:09;;;;;;;5.07;2.47;;;;;;;;;;5135481;27;20058;-71
2023/06/22 12:27:36;;;;;;;3.85;2.20;;;;;;;;;;5152615;27;20393;-71
2023/06/22 12:30:03;;;;;;;7.90;3.17;;;;;;;;;;5153985;27;20051;-71
2023/06/22 12:32:30;;;;;;;5.53;2.28;;;;;;;;;;5129363;27;20073;-71
2023/06/22 12:34:56;;;;;;;5.03;2.95;;;;;;;;;;5151827;27;20046;-71
2023/06/22 12:37:22;;;;;;;4.70;2.53;;;;;;;;;;5135339;27;20398;-71
2023/06/22 12:39:49;;;;;;;6.32;2.92;;;;;;;;;;5143577;27;20041;-72
2023/06/22 12:42:16;;;;;;;8.60;3.08;;;;;;;;;;5145392;27;20034;-71
2023/06/22 12:44:42;;;;;;;4.57;2.70;;;;;;;;;;5153525;27;20088;-71
2023/06/22 12:47:09;;;;;;;4.53;2.60;;;;;;;;;;5128644;27;20049;-72
2023/06/22 12:49:36;;;;;;;4.40;2.13;;;;;;;;;;5120447;27;20070;-71
2023/06/22 12:52:02;;;;;;;4.53;1.70;;;;;;;;;;5123838;27;20045;-71
2023/06/22 12:54:29;;;;;;;3.83;1.70;;;;;;;;;;5103544;27;20047;-71
2023/06/22 12:56:55;;;;;;;3.47;1.52;;;;;;;;;;5140209;27;20111;-71
2023/06/22 12:59:22;;;;;;;4.22;1.40;;;;;;;;;;5142446;27;20043;-71
2023/06/22 13:01:48;;;;;;;6.03;1.83;;;;;;;;;;5127559;27;20055;-71
2023/06/22 13:04:15;;;;;;;5.50;1.45;;;;;;;;;;5134460;27;20407;-66
2023/06/22 13:06:41;;;;;;;3.50;1.45;;;;;;;;;;5149883;27;20126;-69
2023/06/22 13:09:08;;;;;;;3.13;1.45;;;;;;;;;;5120642;27;20027;-72
2023/06/22 13:11:34;;;;;;;3.38;1.30;;;;;;;;;;5132651;27;20058;-72
2023/06/22 13:14:01;;;;;;;4.90;1.58;;;;;;;;;;5132760;27;20039;-71
2023/06/22 13:16:27;;;;;;;2.75;1.40;;;;;;;;;;5096613;28;20074;-72
2023/06/22 13:18:53;;;;;;;3.30;1.40;;;;;;;;;;5135607;27;20420;-72
2023/06/22 13:21:19;;;;;;;4.63;1.42;;;;;;;;;;5122540;28;20054;-72
2023/06/22 13:23:45;;;;;;;4.10;1.73;;;;;;;;;;5113022;27;20106;-72
2023/06/22 13:26:12;;;;;;;6.30;1.48;;;;;;;;;;5114374;28;20035;-72
2023/06/22 13:28:38;;;;;;;3.95;1.50;;;;;;;;;;5133010;27;20490;-71
2023/06/22 13:31:04;;;;;;;4.90;1.52;;;;;;;;;;5113478;28;20047;-72
2023/06/22 13:33:30;;;;;;;3.03;1.25;;;;;;;;;;5145607;27;20486;-72
2023/06/22 13:35:56;;;;;;;2.95;1.50;;;;;;;;;;5132471;27;20138;-72
2023/06/22 13:38:23;;;;;;;2.90;1.40;;;;;;;;;;5131678;27;20043;-72
2023/06/22 13:40:49;;;;;;;3.80;1.30;;;;;;;;;;5134826;27;20090;-71
2023/06/22 13:43:16;;;;;;;3.58;1.30;;;;;;;;;;5138364;27;20038;-71
2023/06/22 13:45:43;;;;;;;5.32;1.40;;;;;;;;;;5134043;27;20042;-72
2023/06/22 13:48:09;;;;;;;3.53;1.30;;;;;;;;;;5152985;27;20154;-72
2023/06/22 13:50:35;;;;;;;3.33;1.30;;;;;;;;;;5125874;27;20038;-72
2023/06/22 13:53:02;;;;;;;4.15;1.50;;;;;;;;;;5153469;27;20079;-72
2023/06/22 13:55:28;;;;;;;3.08;1.20;;;;;;;;;;5122075;27;20509;-71
2023/06/22 13:57:54;;;;;;;3.00;1.20;;;;;;;;;;5151944;27;20046;-72
2023/06/22 14:00:20;;;;;;;2.35;0.90;;;;;;;;;;5155944;27;20437;-72
2023/06/22 14:02:47;;;;;;;2.55;1.23;;;;;;;;;;5145361;27;20035;-72
2023/06/22 14:05:13;;;;;;;2.97;1.13;;;;;;;;;;5152942;27;20138;-72
2023/06/22 14:07:39;;;;;;;2.42;1.10;;;;;;;;;;5139305;27;20478;-72
2023/06/22 14:10:05;;;;;;;4.63;1.30;;;;;;;;;;5137838;27;20074;-72
2023/06/22 14:12:32;;;;;;;4.57;1.25;;;;;;;;;;5137288;27;20043;-72
2023/06/22 14:14:58;;;;;;;5.13;1.60;;;;;;;;;;5156833;27;20051;-72
2023/06/22 14:17:26;;;;;;;4.47;1.20;;;;;;;;;;5126557;27;20177;-72
2023/06/22 14:19:52;;;;;;;2.28;1.13;;;;;;;;;;5155902;27;20043;-72
2023/06/22 14:22:22;;;;;;;2.85;1.10;;;;;;;;;;5121911;27;20390;-71
2023/06/22 14:24:48;;;;;;;6.78;1.23;;;;;;;;;;5156272;27;20074;-71
2023/06/22 14:27:15;;;;;;;3.90;1.45;;;;;;;;;;5152916;27;20578;-72